sensor_id;sensor_type;location;lat;lon;timestamp;temperature;humidity
81524;DHT22;70954;49.500;10.416;2024-02-23T00:01:51;10.60;59.10
81524;DHT22;70954;49.500;10.416;2024-02-23T00:04:17;10.60;59.00
81524;DHT22;70954;49.500;10.416;2024-02-23T00:06:42;10.50;59.20
81524;DHT22;70954;49.500;10.416;2024-02-23T00:09:08;10.50;59.00
81524;DHT22;70954;49.500;10.416;2024-02-23T00:11:33;10.40;58.80
81524;DHT22;70954;49.500;10.416;2024-02-23T00:13:59;10.40;58.90
81524;DHT22;70954;49.500;10.416;2024-02-23T00:16:25;10.30;59.00
81524;DHT22;70954;49.500;10.416;2024-02-23T00:18:50;10.30;58.70
81524;DHT22;70954;49.500;10.416;2024-02-23T00:21:16;10.20;58.70
81524;DHT22;70954;49.500;10.416;2024-02-23T00:23:41;10.20;58.60
81524;DHT22;70954;49.500;10.416;2024-02-23T00:26:07;10.10;58.60
81524;DHT22;70954;49.500;10.416;2024-02-23T00:28:32;10.00;58.80
81524;DHT22;70954;49.500;10.416;2024-02-23T00:30:57;10.00;58.90
81524;DHT22;70954;49.500;10.416;2024-02-23T00:33:23;10.00;59.00
81524;DHT22;70954;49.500;10.416;2024-02-23T00:35:48;9.90;59.10
81524;DHT22;70954;49.500;10.416;2024-02-23T00:38:14;9.80;59.40
81524;DHT22;70954;49.500;10.416;2024-02-23T00:40:39;9.80;59.50
81524;DHT22;70954;49.500;10.416;2024-02-23T00:43:05;9.70;59.40
81524;DHT22;70954;49.500;10.416;2024-02-23T00:45:30;9.70;59.40
81524;DHT22;70954;49.500;10.416;2024-02-23T00:47:55;9.60;59.60
81524;DHT22;70954;49.500;10.416;2024-02-23T00:50:21;9.60;59.70
81524;DHT22;70954;49.500;10.416;2024-02-23T00:52:46;9.50;59.70
81524;DHT22;70954;49.500;10.416;2024-02-23T00:55:12;9.50;59.90
81524;DHT22;70954;49.500;10.416;2024-02-23T00:57:38;9.50;59.90
81524;DHT22;70954;49.500;10.416;2024-02-23T01:00:04;9.40;60.00
81524;DHT22;70954;49.500;10.416;2024-02-23T01:02:29;9.40;59.80
81524;DHT22;70954;49.500;10.416;2024-02-23T01:04:55;9.40;59.80
81524;DHT22;70954;49.500;10.416;2024-02-23T01:07:20;9.40;60.00
81524;DHT22;70954;49.500;10.416;2024-02-23T01:09:46;9.30;59.80
81524;DHT22;70954;49.500;10.416;2024-02-23T01:12:11;9.20;59.90
81524;DHT22;70954;49.500;10.416;2024-02-23T01:14:36;9.20;59.90
81524;DHT22;70954;49.500;10.416;2024-02-23T01:17:02;9.20;60.00
81524;DHT22;70954;49.500;10.416;2024-02-23T01:19:27;9.20;60.10
81524;DHT22;70954;49.500;10.416;2024-02-23T01:21:53;9.10;60.20
81524;DHT22;70954;49.500;10.416;2024-02-23T01:24:18;9.10;60.30
81524;DHT22;70954;49.500;10.416;2024-02-23T01:26:44;9.10;60.40
81524;DHT22;70954;49.500;10.416;2024-02-23T01:29:09;9.00;60.50
81524;DHT22;70954;49.500;10.416;2024-02-23T01:31:35;9.00;60.50
81524;DHT22;70954;49.500;10.416;2024-02-23T01:34:00;9.00;60.70
81524;DHT22;70954;49.500;10.416;2024-02-23T01:36:25;9.00;60.70
81524;DHT22;70954;49.500;10.416;2024-02-23T01:38:51;9.00;60.80
81524;DHT22;70954;49.500;10.416;2024-02-23T01:41:16;9.00;60.90
81524;DHT22;70954;49.500;10.416;2024-02-23T01:43:42;9.00;60.90
81524;DHT22;70954;49.500;10.416;2024-02-23T01:46:07;8.90;61.00
81524;DHT22;70954;49.500;10.416;2024-02-23T01:48:33;8.90;61.10
81524;DHT22;70954;49.500;10.416;2024-02-23T01:50:59;8.80;61.30
81524;DHT22;70954;49.500;10.416;2024-02-23T01:53:25;8.80;61.20
81524;DHT22;70954;49.500;10.416;2024-02-23T01:55:53;8.80;61.40
81524;DHT22;70954;49.500;10.416;2024-02-23T01:58:19;8.80;61.40
81524;DHT22;70954;49.500;10.416;2024-02-23T02:00:45;8.70;61.50
81524;DHT22;70954;49.500;10.416;2024-02-23T02:03:10;8.70;61.50
81524;DHT22;70954;49.500;10.416;2024-02-23T02:05:37;8.60;61.50
81524;DHT22;70954;49.500;10.416;2024-02-23T02:08:02;8.60;61.50
81524;DHT22;70954;49.500;10.416;2024-02-23T02:10:28;8.60;61.50
81524;DHT22;70954;49.500;10.416;2024-02-23T02:12:53;8.60;61.20
81524;DHT22;70954;49.500;10.416;2024-02-23T02:15:19;8.60;61.10
81524;DHT22;70954;49.500;10.416;2024-02-23T02:17:44;8.60;61.30
81524;DHT22;70954;49.500;10.416;2024-02-23T02:20:12;8.50;61.40
81524;DHT22;70954;49.500;10.416;2024-02-23T02:22:38;8.50;61.20
81524;DHT22;70954;49.500;10.416;2024-02-23T02:25:03;8.40;61.20
81524;DHT22;70954;49.500;10.416;2024-02-23T02:27:29;8.40;61.10
81524;DHT22;70954;49.500;10.416;2024-02-23T02:29:54;8.40;61.10
81524;DHT22;70954;49.500;10.416;2024-02-23T02:32:20;8.40;61.10
81524;DHT22;70954;49.500;10.416;2024-02-23T02:34:45;8.30;61.00
81524;DHT22;70954;49.500;10.416;2024-02-23T02:37:11;8.30;61.10
81524;DHT22;70954;49.500;10.416;2024-02-23T02:39:36;8.20;60.80
81524;DHT22;70954;49.500;10.416;2024-02-23T02:42:02;8.20;61.00
81524;DHT22;70954;49.500;10.416;2024-02-23T02:44:27;8.20;60.90
81524;DHT22;70954;49.500;10.416;2024-02-23T02:46:52;8.20;60.80
81524;DHT22;70954;49.500;10.416;2024-02-23T02:49:18;8.10;60.80
81524;DHT22;70954;49.500;10.416;2024-02-23T02:51:43;8.10;60.80
81524;DHT22;70954;49.500;10.416;2024-02-23T02:54:09;8.10;60.80
81524;DHT22;70954;49.500;10.416;2024-02-23T02:56:34;8.00;60.80
81524;DHT22;70954;49.500;10.416;2024-02-23T02:59:00;8.00;61.00
81524;DHT22;70954;49.500;10.416;2024-02-23T03:01:25;8.00;61.10
81524;DHT22;70954;49.500;10.416;2024-02-23T03:03:51;8.00;61.00
81524;DHT22;70954;49.500;10.416;2024-02-23T03:06:16;8.00;61.10
81524;DHT22;70954;49.500;10.416;2024-02-23T03:08:42;8.00;61.10
81524;DHT22;70954;49.500;10.416;2024-02-23T03:11:08;8.00;61.10
81524;DHT22;70954;49.500;10.416;2024-02-23T03:13:33;8.00;61.20
81524;DHT22;70954;49.500;10.416;2024-02-23T03:15:59;7.90;61.20
81524;DHT22;70954;49.500;10.416;2024-02-23T03:18:24;7.90;61.20
81524;DHT22;70954;49.500;10.416;2024-02-23T03:20:50;7.90;61.20
81524;DHT22;70954;49.500;10.416;2024-02-23T03:23:15;7.90;61.10
81524;DHT22;70954;49.500;10.416;2024-02-23T03:25:40;7.80;61.20
81524;DHT22;70954;49.500;10.416;2024-02-23T03:28:06;7.80;61.00
81524;DHT22;70954;49.500;10.416;2024-02-23T03:30:31;7.80;61.00
81524;DHT22;70954;49.500;10.416;2024-02-23T03:32:57;7.80;61.00
81524;DHT22;70954;49.500;10.416;2024-02-23T03:35:22;7.80;60.70
81524;DHT22;70954;49.500;10.416;2024-02-23T03:37:48;7.80;60.70
81524;DHT22;70954;49.500;10.416;2024-02-23T03:40:13;7.80;60.70
81524;DHT22;70954;49.500;10.416;2024-02-23T03:42:39;7.80;60.90
81524;DHT22;70954;49.500;10.416;2024-02-23T03:45:05;7.80;60.90
81524;DHT22;70954;49.500;10.416;2024-02-23T03:47:30;7.70;60.80
81524;DHT22;70954;49.500;10.416;2024-02-23T03:49:56;7.70;60.90
81524;DHT22;70954;49.500;10.416;2024-02-23T03:52:21;7.70;60.80
81524;DHT22;70954;49.500;10.416;2024-02-23T03:54:47;7.70;60.70
81524;DHT22;70954;49.500;10.416;2024-02-23T03:57:12;7.60;60.20
81524;DHT22;70954;49.500;10.416;2024-02-23T03:59:37;7.60;60.40
81524;DHT22;70954;49.500;10.416;2024-02-23T04:02:04;7.60;60.50
81524;DHT22;70954;49.500;10.416;2024-02-23T04:04:29;7.60;60.40
81524;DHT22;70954;49.500;10.416;2024-02-23T04:06:54;7.60;60.50
81524;DHT22;70954;49.500;10.416;2024-02-23T04:09:20;7.50;60.50
81524;DHT22;70954;49.500;10.416;2024-02-23T04:11:47;7.50;60.40
81524;DHT22;70954;49.500;10.416;2024-02-23T04:14:12;7.50;60.50
81524;DHT22;70954;49.500;10.416;2024-02-23T04:16:38;7.50;60.50
81524;DHT22;70954;49.500;10.416;2024-02-23T04:19:03;7.50;60.30
81524;DHT22;70954;49.500;10.416;2024-02-23T04:21:29;7.50;60.40
81524;DHT22;70954;49.500;10.416;2024-02-23T04:23:54;7.50;60.60
81524;DHT22;70954;49.500;10.416;2024-02-23T04:26:20;7.50;60.60
81524;DHT22;70954;49.500;10.416;2024-02-23T04:28:45;7.50;60.60
81524;DHT22;70954;49.500;10.416;2024-02-23T04:31:11;7.50;60.70
81524;DHT22;70954;49.500;10.416;2024-02-23T04:33:37;7.50;60.70
81524;DHT22;70954;49.500;10.416;2024-02-23T04:36:03;7.50;60.80
81524;DHT22;70954;49.500;10.416;2024-02-23T04:38:30;7.50;60.90
81524;DHT22;70954;49.500;10.416;2024-02-23T04:40:56;7.50;60.80
81524;DHT22;70954;49.500;10.416;2024-02-23T04:43:21;7.50;60.90
81524;DHT22;70954;49.500;10.416;2024-02-23T04:45:47;7.50;60.90
81524;DHT22;70954;49.500;10.416;2024-02-23T04:48:12;7.50;60.90
81524;DHT22;70954;49.500;10.416;2024-02-23T04:50:38;7.50;60.80
81524;DHT22;70954;49.500;10.416;2024-02-23T04:53:03;7.50;60.80
81524;DHT22;70954;49.500;10.416;2024-02-23T04:55:29;7.40;60.80
81524;DHT22;70954;49.500;10.416;2024-02-23T04:57:54;7.40;60.70
81524;DHT22;70954;49.500;10.416;2024-02-23T05:00:20;7.40;60.70
81524;DHT22;70954;49.500;10.416;2024-02-23T05:02:46;7.40;60.90
81524;DHT22;70954;49.500;10.416;2024-02-23T05:05:11;7.40;60.90
81524;DHT22;70954;49.500;10.416;2024-02-23T05:07:37;7.40;60.90
81524;DHT22;70954;49.500;10.416;2024-02-23T05:10:02;7.40;61.00
81524;DHT22;70954;49.500;10.416;2024-02-23T05:12:28;7.40;61.00
81524;DHT22;70954;49.500;10.416;2024-02-23T05:14:53;7.40;60.90
81524;DHT22;70954;49.500;10.416;2024-02-23T05:17:19;7.40;60.90
81524;DHT22;70954;49.500;10.416;2024-02-23T05:19:44;7.40;60.80
81524;DHT22;70954;49.500;10.416;2024-02-23T05:22:09;7.40;60.70
81524;DHT22;70954;49.500;10.416;2024-02-23T05:24:35;7.40;60.90
81524;DHT22;70954;49.500;10.416;2024-02-23T05:27:00;7.40;60.80
81524;DHT22;70954;49.500;10.416;2024-02-23T05:29:26;7.40;60.80
81524;DHT22;70954;49.500;10.416;2024-02-23T05:31:52;7.40;60.80
81524;DHT22;70954;49.500;10.416;2024-02-23T05:34:18;7.40;60.80
81524;DHT22;70954;49.500;10.416;2024-02-23T05:36:44;7.40;60.70
81524;DHT22;70954;49.500;10.416;2024-02-23T05:39:09;7.40;60.40
81524;DHT22;70954;49.500;10.416;2024-02-23T05:41:36;7.30;60.50
81524;DHT22;70954;49.500;10.416;2024-02-23T05:44:01;7.30;60.70
81524;DHT22;70954;49.500;10.416;2024-02-23T05:46:27;7.30;60.70
81524;DHT22;70954;49.500;10.416;2024-02-23T05:48:52;7.30;60.50
81524;DHT22;70954;49.500;10.416;2024-02-23T05:51:17;7.30;60.60
81524;DHT22;70954;49.500;10.416;2024-02-23T05:53:43;7.20;60.60
81524;DHT22;70954;49.500;10.416;2024-02-23T05:56:08;7.30;60.60
81524;DHT22;70954;49.500;10.416;2024-02-23T05:58:34;7.20;60.50
81524;DHT22;70954;49.500;10.416;2024-02-23T06:00:59;7.20;60.40
81524;DHT22;70954;49.500;10.416;2024-02-23T06:03:25;7.20;60.20
81524;DHT22;70954;49.500;10.416;2024-02-23T06:05:50;7.20;60.00
81524;DHT22;70954;49.500;10.416;2024-02-23T06:08:15;7.20;60.10
81524;DHT22;70954;49.500;10.416;2024-02-23T06:10:41;7.20;60.20
81524;DHT22;70954;49.500;10.416;2024-02-23T06:13:06;7.20;60.10
81524;DHT22;70954;49.500;10.416;2024-02-23T06:15:32;7.10;60.20
81524;DHT22;70954;49.500;10.416;2024-02-23T06:17:57;7.10;60.30
81524;DHT22;70954;49.500;10.416;2024-02-23T06:20:23;7.10;60.30
81524;DHT22;70954;49.500;10.416;2024-02-23T06:22:48;7.00;60.20
81524;DHT22;70954;49.500;10.416;2024-02-23T06:25:14;7.00;60.20
81524;DHT22;70954;49.500;10.416;2024-02-23T06:27:39;7.00;60.30
81524;DHT22;70954;49.500;10.416;2024-02-23T06:30:05;7.00;60.20
81524;DHT22;70954;49.500;10.416;2024-02-23T06:32:31;7.00;60.30
81524;DHT22;70954;49.500;10.416;2024-02-23T06:34:56;7.00;60.50
81524;DHT22;70954;49.500;10.416;2024-02-23T06:37:21;7.00;60.30
81524;DHT22;70954;49.500;10.416;2024-02-23T06:39:47;7.00;60.30
81524;DHT22;70954;49.500;10.416;2024-02-23T06:42:12;7.00;60.40
81524;DHT22;70954;49.500;10.416;2024-02-23T06:44:38;7.00;60.30
81524;DHT22;70954;49.500;10.416;2024-02-23T06:47:03;7.00;60.00
81524;DHT22;70954;49.500;10.416;2024-02-23T06:49:29;7.00;60.30
81524;DHT22;70954;49.500;10.416;2024-02-23T06:51:54;6.90;60.50
81524;DHT22;70954;49.500;10.416;2024-02-23T06:54:20;6.90;60.10
81524;DHT22;70954;49.500;10.416;2024-02-23T06:56:45;6.90;60.00
81524;DHT22;70954;49.500;10.416;2024-02-23T06:59:10;6.90;60.40
81524;DHT22;70954;49.500;10.416;2024-02-23T07:01:36;6.90;60.40
81524;DHT22;70954;49.500;10.416;2024-02-23T07:04:01;7.00;60.40
81524;DHT22;70954;49.500;10.416;2024-02-23T07:06:27;7.00;60.50
81524;DHT22;70954;49.500;10.416;2024-02-23T07:08:52;7.00;60.30
81524;DHT22;70954;49.500;10.416;2024-02-23T07:11:18;7.00;60.20
81524;DHT22;70954;49.500;10.416;2024-02-23T07:13:43;7.00;60.30
81524;DHT22;70954;49.500;10.416;2024-02-23T07:16:09;7.00;60.30
81524;DHT22;70954;49.500;10.416;2024-02-23T07:18:34;7.00;60.20
81524;DHT22;70954;49.500;10.416;2024-02-23T07:21:00;7.00;60.00
81524;DHT22;70954;49.500;10.416;2024-02-23T07:23:25;7.00;60.10
81524;DHT22;70954;49.500;10.416;2024-02-23T07:25:50;7.00;60.30
81524;DHT22;70954;49.500;10.416;2024-02-23T07:28:16;7.00;60.40
81524;DHT22;70954;49.500;10.416;2024-02-23T07:30:41;7.00;60.10
81524;DHT22;70954;49.500;10.416;2024-02-23T07:33:07;7.00;60.20
81524;DHT22;70954;49.500;10.416;2024-02-23T07:35:32;7.00;60.00
81524;DHT22;70954;49.500;10.416;2024-02-23T07:37:58;7.00;60.00
81524;DHT22;70954;49.500;10.416;2024-02-23T07:40:23;7.00;59.70
81524;DHT22;70954;49.500;10.416;2024-02-23T07:42:49;7.00;59.70
81524;DHT22;70954;49.500;10.416;2024-02-23T07:45:14;7.00;59.80
81524;DHT22;70954;49.500;10.416;2024-02-23T07:47:40;7.00;60.10
81524;DHT22;70954;49.500;10.416;2024-02-23T07:50:05;7.00;60.10
81524;DHT22;70954;49.500;10.416;2024-02-23T07:52:31;7.00;60.20
81524;DHT22;70954;49.500;10.416;2024-02-23T07:54:56;7.00;60.00
81524;DHT22;70954;49.500;10.416;2024-02-23T07:57:22;7.10;60.10
81524;DHT22;70954;49.500;10.416;2024-02-23T07:59:48;7.20;60.30
81524;DHT22;70954;49.500;10.416;2024-02-23T08:02:14;7.20;60.50
81524;DHT22;70954;49.500;10.416;2024-02-23T08:04:40;7.20;60.60
81524;DHT22;70954;49.500;10.416;2024-02-23T08:07:06;7.30;60.60
81524;DHT22;70954;49.500;10.416;2024-02-23T08:09:31;7.40;60.40
81524;DHT22;70954;49.500;10.416;2024-02-23T08:11:56;7.40;60.20
81524;DHT22;70954;49.500;10.416;2024-02-23T08:14:22;7.50;60.30
81524;DHT22;70954;49.500;10.416;2024-02-23T08:16:47;7.50;60.40
81524;DHT22;70954;49.500;10.416;2024-02-23T08:19:13;7.60;60.30
81524;DHT22;70954;49.500;10.416;2024-02-23T08:21:38;7.60;60.40
81524;DHT22;70954;49.500;10.416;2024-02-23T08:24:04;7.70;60.40
81524;DHT22;70954;49.500;10.416;2024-02-23T08:26:29;7.70;60.20
81524;DHT22;70954;49.500;10.416;2024-02-23T08:28:55;7.80;60.00
81524;DHT22;70954;49.500;10.416;2024-02-23T08:31:20;7.80;60.00
81524;DHT22;70954;49.500;10.416;2024-02-23T08:33:46;7.90;60.10
81524;DHT22;70954;49.500;10.416;2024-02-23T08:36:11;8.00;60.10
81524;DHT22;70954;49.500;10.416;2024-02-23T08:38:37;8.00;60.10
81524;DHT22;70954;49.500;10.416;2024-02-23T08:41:02;8.00;60.00
81524;DHT22;70954;49.500;10.416;2024-02-23T08:43:28;8.10;60.10
81524;DHT22;70954;49.500;10.416;2024-02-23T08:45:53;8.10;59.90
81524;DHT22;70954;49.500;10.416;2024-02-23T08:48:19;8.20;59.90
81524;DHT22;70954;49.500;10.416;2024-02-23T08:50:44;8.20;59.80
81524;DHT22;70954;49.500;10.416;2024-02-23T08:53:10;8.30;59.40
81524;DHT22;70954;49.500;10.416;2024-02-23T08:55:35;8.30;59.10
81524;DHT22;70954;49.500;10.416;2024-02-23T08:58:01;8.40;58.80
81524;DHT22;70954;49.500;10.416;2024-02-23T09:00:26;8.40;59.00
81524;DHT22;70954;49.500;10.416;2024-02-23T09:02:52;8.40;59.00
81524;DHT22;70954;49.500;10.416;2024-02-23T09:05:17;8.50;58.90
81524;DHT22;70954;49.500;10.416;2024-02-23T09:07:43;8.50;58.90
81524;DHT22;70954;49.500;10.416;2024-02-23T09:10:08;8.50;58.60
81524;DHT22;70954;49.500;10.416;2024-02-23T09:12:34;8.50;58.20
81524;DHT22;70954;49.500;10.416;2024-02-23T09:14:59;8.60;58.00
81524;DHT22;70954;49.500;10.416;2024-02-23T09:17:25;8.60;57.80
81524;DHT22;70954;49.500;10.416;2024-02-23T09:19:50;8.50;56.30
81524;DHT22;70954;49.500;10.416;2024-02-23T09:22:16;8.50;56.60
81524;DHT22;70954;49.500;10.416;2024-02-23T09:24:41;8.50;57.10
81524;DHT22;70954;49.500;10.416;2024-02-23T09:27:07;8.50;57.30
81524;DHT22;70954;49.500;10.416;2024-02-23T09:29:33;8.50;57.50
81524;DHT22;70954;49.500;10.416;2024-02-23T09:31:58;8.50;57.80
81524;DHT22;70954;49.500;10.416;2024-02-23T09:34:24;8.50;57.70
81524;DHT22;70954;49.500;10.416;2024-02-23T09:36:50;8.50;57.60
81524;DHT22;70954;49.500;10.416;2024-02-23T09:39:15;8.50;57.90
81524;DHT22;70954;49.500;10.416;2024-02-23T09:41:42;8.50;58.00
81524;DHT22;70954;49.500;10.416;2024-02-23T09:44:08;8.60;58.00
81524;DHT22;70954;49.500;10.416;2024-02-23T09:46:34;8.60;57.80
81524;DHT22;70954;49.500;10.416;2024-02-23T09:49:01;8.60;58.00
81524;DHT22;70954;49.500;10.416;2024-02-23T09:51:27;8.70;57.80
81524;DHT22;70954;49.500;10.416;2024-02-23T09:53:53;8.70;57.70
81524;DHT22;70954;49.500;10.416;2024-02-23T09:56:21;8.80;57.90
81524;DHT22;70954;49.500;10.416;2024-02-23T09:58:48;8.80;57.70
81524;DHT22;70954;49.500;10.416;2024-02-23T10:01:21;8.90;57.70
81524;DHT22;70954;49.500;10.416;2024-02-23T10:03:50;8.90;57.30
81524;DHT22;70954;49.500;10.416;2024-02-23T10:06:15;8.90;57.40
81524;DHT22;70954;49.500;10.416;2024-02-23T10:08:41;9.00;56.60
81524;DHT22;70954;49.500;10.416;2024-02-23T10:11:06;9.00;56.60
81524;DHT22;70954;49.500;10.416;2024-02-23T10:13:31;9.00;57.00
81524;DHT22;70954;49.500;10.416;2024-02-23T10:15:57;9.00;56.80
81524;DHT22;70954;49.500;10.416;2024-02-23T10:18:22;9.00;57.00
81524;DHT22;70954;49.500;10.416;2024-02-23T10:20:48;9.00;57.10
81524;DHT22;70954;49.500;10.416;2024-02-23T10:23:13;9.00;57.20
81524;DHT22;70954;49.500;10.416;2024-02-23T10:25:39;9.10;57.10
81524;DHT22;70954;49.500;10.416;2024-02-23T10:28:05;9.20;56.50
81524;DHT22;70954;49.500;10.416;2024-02-23T10:30:31;9.20;56.20
81524;DHT22;70954;49.500;10.416;2024-02-23T10:32:57;9.20;56.10
81524;DHT22;70954;49.500;10.416;2024-02-23T10:35:24;9.20;55.90
81524;DHT22;70954;49.500;10.416;2024-02-23T10:37:50;9.20;56.30
81524;DHT22;70954;49.500;10.416;2024-02-23T10:40:17;9.20;56.40
81524;DHT22;70954;49.500;10.416;2024-02-23T10:42:46;9.20;56.40
81524;DHT22;70954;49.500;10.416;2024-02-23T10:45:12;9.30;56.20
81524;DHT22;70954;49.500;10.416;2024-02-23T10:47:37;9.40;56.10
81524;DHT22;70954;49.500;10.416;2024-02-23T10:50:03;9.40;56.10
81524;DHT22;70954;49.500;10.416;2024-02-23T10:52:29;9.40;56.30
81524;DHT22;70954;49.500;10.416;2024-02-23T10:54:56;9.40;56.10
81524;DHT22;70954;49.500;10.416;2024-02-23T10:57:22;9.50;56.10
81524;DHT22;70954;49.500;10.416;2024-02-23T10:59:48;9.60;56.10
81524;DHT22;70954;49.500;10.416;2024-02-23T11:02:16;9.60;55.80
81524;DHT22;70954;49.500;10.416;2024-02-23T11:04:45;9.70;56.00
81524;DHT22;70954;49.500;10.416;2024-02-23T11:07:14;9.70;55.90
81524;DHT22;70954;49.500;10.416;2024-02-23T11:09:40;9.80;55.80
81524;DHT22;70954;49.500;10.416;2024-02-23T11:12:05;9.80;55.20
81524;DHT22;70954;49.500;10.416;2024-02-23T11:14:38;9.80;55.60
81524;DHT22;70954;49.500;10.416;2024-02-23T11:17:04;9.80;55.60
81524;DHT22;70954;49.500;10.416;2024-02-23T11:19:37;9.90;55.70
81524;DHT22;70954;49.500;10.416;2024-02-23T11:22:03;10.00;55.70
81524;DHT22;70954;49.500;10.416;2024-02-23T11:24:29;10.00;55.60
81524;DHT22;70954;49.500;10.416;2024-02-23T11:26:59;10.00;55.70
81524;DHT22;70954;49.500;10.416;2024-02-23T11:29:29;10.00;55.80
81524;DHT22;70954;49.500;10.416;2024-02-23T11:31:55;10.00;55.90
81524;DHT22;70954;49.500;10.416;2024-02-23T11:34:23;10.00;56.10
81524;DHT22;70954;49.500;10.416;2024-02-23T11:36:50;10.10;55.90
81524;DHT22;70954;49.500;10.416;2024-02-23T11:39:16;10.10;55.90
81524;DHT22;70954;49.500;10.416;2024-02-23T11:41:42;10.20;55.90
81524;DHT22;70954;49.500;10.416;2024-02-23T11:44:08;10.20;55.70
81524;DHT22;70954;49.500;10.416;2024-02-23T11:46:34;10.20;55.50
81524;DHT22;70954;49.500;10.416;2024-02-23T11:48:59;10.20;55.50
81524;DHT22;70954;49.500;10.416;2024-02-23T11:51:25;10.20;55.60
81524;DHT22;70954;49.500;10.416;2024-02-23T11:53:51;10.20;55.60
81524;DHT22;70954;49.500;10.416;2024-02-23T11:56:16;10.20;55.70
81524;DHT22;70954;49.500;10.416;2024-02-23T11:58:42;10.20;55.70
81524;DHT22;70954;49.500;10.416;2024-02-23T12:01:07;10.20;55.50
81524;DHT22;70954;49.500;10.416;2024-02-23T12:03:33;10.30;55.50
81524;DHT22;70954;49.500;10.416;2024-02-23T12:06:00;10.30;55.50
81524;DHT22;70954;49.500;10.416;2024-02-23T12:08:26;10.30;55.40
81524;DHT22;70954;49.500;10.416;2024-02-23T12:10:55;10.30;55.30
81524;DHT22;70954;49.500;10.416;2024-02-23T12:13:21;10.30;55.30
81524;DHT22;70954;49.500;10.416;2024-02-23T12:15:48;10.30;55.00
81524;DHT22;70954;49.500;10.416;2024-02-23T12:18:14;10.20;55.00
81524;DHT22;70954;49.500;10.416;2024-02-23T12:20:39;10.20;55.10
81524;DHT22;70954;49.500;10.416;2024-02-23T12:23:04;10.20;55.00
81524;DHT22;70954;49.500;10.416;2024-02-23T12:25:30;10.20;54.90
81524;DHT22;70954;49.500;10.416;2024-02-23T12:27:56;10.20;54.60
81524;DHT22;70954;49.500;10.416;2024-02-23T12:30:21;10.10;54.50
81524;DHT22;70954;49.500;10.416;2024-02-23T12:32:47;10.10;54.40
81524;DHT22;70954;49.500;10.416;2024-02-23T12:35:12;10.00;54.40
81524;DHT22;70954;49.500;10.416;2024-02-23T12:37:38;10.00;54.60
81524;DHT22;70954;49.500;10.416;2024-02-23T12:40:04;10.00;54.20
81524;DHT22;70954;49.500;10.416;2024-02-23T12:42:29;10.00;54.50
81524;DHT22;70954;49.500;10.416;2024-02-23T12:44:55;10.00;54.80
81524;DHT22;70954;49.500;10.416;2024-02-23T12:47:20;10.00;54.80
81524;DHT22;70954;49.500;10.416;2024-02-23T12:49:45;10.00;55.00
81524;DHT22;70954;49.500;10.416;2024-02-23T12:52:12;9.90;54.80
81524;DHT22;70954;49.500;10.416;2024-02-23T12:54:37;10.00;54.90
81524;DHT22;70954;49.500;10.416;2024-02-23T12:57:03;9.90;55.00
81524;DHT22;70954;49.500;10.416;2024-02-23T12:59:28;9.90;55.00
81524;DHT22;70954;49.500;10.416;2024-02-23T13:01:53;10.00;55.10
81524;DHT22;70954;49.500;10.416;2024-02-23T13:04:19;10.00;55.20
81524;DHT22;70954;49.500;10.416;2024-02-23T13:06:44;10.00;55.20
81524;DHT22;70954;49.500;10.416;2024-02-23T13:09:10;10.00;55.20
81524;DHT22;70954;49.500;10.416;2024-02-23T13:11:38;10.00;55.10
81524;DHT22;70954;49.500;10.416;2024-02-23T13:14:03;10.00;55.20
81524;DHT22;70954;49.500;10.416;2024-02-23T13:16:29;10.10;55.10
81524;DHT22;70954;49.500;10.416;2024-02-23T13:18:54;10.10;55.10
81524;DHT22;70954;49.500;10.416;2024-02-23T13:21:20;10.10;55.10
81524;DHT22;70954;49.500;10.416;2024-02-23T13:23:45;10.10;55.20
81524;DHT22;70954;49.500;10.416;2024-02-23T13:26:10;10.20;55.20
81524;DHT22;70954;49.500;10.416;2024-02-23T13:28:36;10.20;55.00
81524;DHT22;70954;49.500;10.416;2024-02-23T13:31:02;10.20;54.80
81524;DHT22;70954;49.500;10.416;2024-02-23T13:33:28;10.30;54.80
81524;DHT22;70954;49.500;10.416;2024-02-23T13:35:53;10.30;54.80
81524;DHT22;70954;49.500;10.416;2024-02-23T13:38:19;10.30;54.70
81524;DHT22;70954;49.500;10.416;2024-02-23T13:40:44;10.40;54.50
81524;DHT22;70954;49.500;10.416;2024-02-23T13:43:10;10.40;54.50
81524;DHT22;70954;49.500;10.416;2024-02-23T13:45:49;10.40;54.60
81524;DHT22;70954;49.500;10.416;2024-02-23T13:48:14;10.50;54.40
81524;DHT22;70954;49.500;10.416;2024-02-23T13:50:40;10.50;54.60
81524;DHT22;70954;49.500;10.416;2024-02-23T13:53:05;10.50;54.10
81524;DHT22;70954;49.500;10.416;2024-02-23T13:55:31;10.50;54.30
81524;DHT22;70954;49.500;10.416;2024-02-23T13:57:56;10.60;54.30
81524;DHT22;70954;49.500;10.416;2024-02-23T14:00:21;10.60;54.20
81524;DHT22;70954;49.500;10.416;2024-02-23T14:02:47;10.60;54.20
81524;DHT22;70954;49.500;10.416;2024-02-23T14:05:13;10.60;54.00
81524;DHT22;70954;49.500;10.416;2024-02-23T14:07:38;10.60;54.00
81524;DHT22;70954;49.500;10.416;2024-02-23T14:10:04;10.60;54.00
81524;DHT22;70954;49.500;10.416;2024-02-23T14:12:30;10.70;53.80
81524;DHT22;70954;49.500;10.416;2024-02-23T14:14:56;10.70;53.90
81524;DHT22;70954;49.500;10.416;2024-02-23T14:17:21;10.70;54.00
81524;DHT22;70954;49.500;10.416;2024-02-23T14:19:46;10.70;53.70
81524;DHT22;70954;49.500;10.416;2024-02-23T14:22:12;10.70;53.60
81524;DHT22;70954;49.500;10.416;2024-02-23T14:24:37;10.70;53.40
81524;DHT22;70954;49.500;10.416;2024-02-23T14:27:03;10.70;53.40
81524;DHT22;70954;49.500;10.416;2024-02-23T14:29:29;10.70;53.50
81524;DHT22;70954;49.500;10.416;2024-02-23T14:31:54;10.70;53.40
81524;DHT22;70954;49.500;10.416;2024-02-23T14:34:20;10.70;53.40
81524;DHT22;70954;49.500;10.416;2024-02-23T14:36:45;10.70;53.50
81524;DHT22;70954;49.500;10.416;2024-02-23T14:39:10;10.80;53.30
81524;DHT22;70954;49.500;10.416;2024-02-23T14:41:36;10.80;53.30
81524;DHT22;70954;49.500;10.416;2024-02-23T14:44:01;10.80;53.20
81524;DHT22;70954;49.500;10.416;2024-02-23T14:46:27;10.80;53.10
81524;DHT22;70954;49.500;10.416;2024-02-23T14:48:52;10.80;53.00
81524;DHT22;70954;49.500;10.416;2024-02-23T14:51:18;10.80;53.10
81524;DHT22;70954;49.500;10.416;2024-02-23T14:53:43;10.80;53.00
81524;DHT22;70954;49.500;10.416;2024-02-23T14:56:08;10.80;53.10
81524;DHT22;70954;49.500;10.416;2024-02-23T14:58:34;10.80;53.00
81524;DHT22;70954;49.500;10.416;2024-02-23T15:00:59;10.80;52.90
81524;DHT22;70954;49.500;10.416;2024-02-23T15:03:25;10.80;52.90
81524;DHT22;70954;49.500;10.416;2024-02-23T15:05:51;10.80;52.80
81524;DHT22;70954;49.500;10.416;2024-02-23T15:08:16;10.80;52.80
81524;DHT22;70954;49.500;10.416;2024-02-23T15:10:42;10.80;52.90
81524;DHT22;70954;49.500;10.416;2024-02-23T15:13:08;10.80;52.90
81524;DHT22;70954;49.500;10.416;2024-02-23T15:15:33;10.80;52.70
81524;DHT22;70954;49.500;10.416;2024-02-23T15:17:59;10.80;52.50